Check out our new BloomSky Weather System.

Active alerts


No alerts


Thunder radar  blitzortung!


Rain radar more information rain snow radar


Visit our other weather sites:

Template documentation
and downloads

And another site



Weather Underground History page Text

Daily Summary for February 17, 2017 Units:  English    Metric   Both
« Previous Day
Next Day »
Daily Weekly Monthly Yearly Custom
  High: Low: Average:
Temperature: 67.3 °F 47.8 °F 57.8 °F
Dew Point: 61.5 °F 43.3 °F 54.3 °F
Humidity: 96 % 74 % 88 %
Wind Speed: 10.0 mph 0.0 mph 1.8 mph
Wind Gust: 13.0 mph - -
Wind:- - SE
Pressure: 30.02 in 29.80 in -
Precipitation: 0.08 in    
Historical Graphs
 
 
Tabular Data for February 17, 2017
Time Temperature Dew Point Pressure Wind Wind Speed Wind Gust Humidity Rainfall Rate (Hourly)
00:02 51.6 °F 43.5 °F 30.02 in Calm     74 % 0.00 in
00:07 51.4 °F 43.7 °F 30.02 in Calm     75 % 0.00 in
00:12 51.3 °F 43.9 °F 30.02 in Calm     76 % 0.00 in
00:17 51.1 °F 44.1 °F 30.01 in Calm     77 % 0.00 in
00:22 50.7 °F 43.7 °F 30.01 in Calm     77 % 0.00 in
00:27 50.5 °F 43.5 °F 30.01 in Calm     77 % 0.00 in
00:32 50.4 °F 44.1 °F 30.01 in Calm     79 % 0.00 in
00:37 50.2 °F 43.9 °F 30.01 in Calm     79 % 0.00 in
00:42 49.6 °F 43.3 °F 30.01 in Calm     79 % 0.00 in
00:47 49.3 °F 43.3 °F 30.01 in Calm     80 % 0.00 in
00:52 49.1 °F 43.5 °F 30.01 in Calm     81 % 0.00 in
00:57 48.9 °F 43.7 °F 30.01 in Calm     82 % 0.00 in
01:02 48.9 °F 44.1 °F 30.01 in Calm     83 % 0.00 in
01:07 48.9 °F 44.1 °F 30.01 in Calm     83 % 0.00 in
01:12 49.3 °F 44.6 °F 30.01 in Calm     84 % 0.00 in
01:17 49.6 °F 44.8 °F 30.01 in Calm   1.0 mph 83 % 0.00 in
01:22 49.6 °F 44.4 °F 30.00 in Calm   1.0 mph 82 % 0.00 in
01:27 49.6 °F 44.4 °F 30.00 in Calm   1.0 mph 82 % 0.00 in
01:32 49.5 °F 44.2 °F 30.00 in Calm   1.0 mph 82 % 0.00 in
01:37 49.1 °F 43.9 °F 30.00 in Calm   1.0 mph 82 % 0.00 in
01:42 48.9 °F 43.7 °F 30.00 in Calm   1.0 mph 82 % 0.00 in
01:47 48.7 °F 43.9 °F 30.00 in Calm     83 % 0.00 in
01:52 48.7 °F 43.9 °F 30.00 in Calm     83 % 0.00 in
01:57 48.6 °F 43.9 °F 29.99 in Calm     84 % 0.00 in
02:02 48.6 °F 43.9 °F 29.99 in Calm     84 % 0.00 in
02:07 48.4 °F 43.7 °F 29.99 in Calm     84 % 0.00 in
02:13 48.2 °F 43.9 °F 29.99 in Calm     85 % 0.00 in
02:17 48.0 °F 43.7 °F 29.99 in Calm     85 % 0.00 in
02:23 47.8 °F 43.5 °F 29.99 in Calm     85 % 0.00 in
02:28 47.8 °F 43.5 °F 29.98 in Calm     85 % 0.00 in
02:33 47.8 °F 44.2 °F 29.98 in Calm   1.0 mph 87 % 0.00 in
02:38 47.8 °F 44.2 °F 29.97 in Calm   1.0 mph 87 % 0.00 in
02:43 48.0 °F 44.4 °F 29.96 in Calm   1.0 mph 87 % 0.00 in
02:48 48.2 °F 44.6 °F 29.97 in Calm   1.0 mph 87 % 0.00 in
02:53 48.4 °F 44.8 °F 29.97 in Calm   1.0 mph 87 % 0.00 in
02:58 48.4 °F 44.8 °F 29.97 in Calm     87 % 0.00 in
03:03 48.4 °F 44.8 °F 29.97 in Calm     87 % 0.00 in
03:08 48.4 °F 44.8 °F 29.97 in Calm     87 % 0.00 in
03:13 48.4 °F 44.8 °F 29.97 in Calm     87 % 0.00 in
03:18 48.6 °F 45.1 °F 29.98 in Calm     88 % 0.00 in
03:23 48.7 °F 45.0 °F 29.98 in Calm     87 % 0.00 in
03:28 49.1 °F 45.3 °F 29.97 in Calm     87 % 0.00 in
03:33 49.5 °F 45.7 °F 29.97 in Calm     87 % 0.00 in
03:38 49.6 °F 45.9 °F 29.97 in Calm     87 % 0.00 in
03:43 49.6 °F 45.7 °F 29.97 in Calm     86 % 0.00 in
03:48 49.8 °F 45.9 °F 29.97 in Calm     86 % 0.00 in
03:53 49.8 °F 45.9 °F 29.97 in Calm     86 % 0.00 in
03:58 49.6 °F 45.7 °F 29.97 in Calm     86 % 0.00 in
04:03 49.8 °F 45.9 °F 29.97 in Calm     86 % 0.00 in
04:08 49.8 °F 45.9 °F 29.97 in Calm     86 % 0.00 in
04:13 49.8 °F 45.9 °F 29.98 in Calm     86 % 0.00 in
04:18 49.8 °F 45.9 °F 29.98 in Calm     86 % 0.00 in
04:23 50.0 °F 46.0 °F 29.98 in Calm     86 % 0.00 in
04:28 50.2 °F 45.9 °F 29.97 in Calm   1.0 mph 85 % 0.00 in
04:33 50.4 °F 46.4 °F 29.97 in Calm   1.0 mph 86 % 0.00 in
04:38 50.5 °F 46.2 °F 29.97 in Calm   1.0 mph 85 % 0.00 in
04:43 50.7 °F 46.4 °F 29.97 in Calm   1.0 mph 85 % 0.00 in
04:48 50.7 °F 46.4 °F 29.96 in Calm   1.0 mph 85 % 0.00 in
04:53 51.1 °F 46.8 °F 29.97 in Calm   1.0 mph 85 % 0.00 in
04:59 51.1 °F 46.8 °F 29.97 in Calm   1.0 mph 85 % 0.00 in
05:04 51.3 °F 46.9 °F 29.97 in Calm   1.0 mph 85 % 0.00 in
05:09 51.4 °F 47.1 °F 29.97 in Calm   1.0 mph 85 % 0.00 in
05:14 51.6 °F 46.9 °F 29.96 in Calm   1.0 mph 84 % 0.00 in
05:19 51.8 °F 47.1 °F 29.95 in Calm   1.0 mph 84 % 0.00 in
05:24 52.0 °F 47.3 °F 29.95 in Calm   1.0 mph 84 % 0.00 in
05:29 52.0 °F 47.3 °F 29.96 in ESE 1.0 mph 1.0 mph 84 % 0.00 in
05:34 52.0 °F 47.3 °F 29.97 in SSW 1.0 mph 1.0 mph 84 % 0.00 in
05:39 52.2 °F 47.5 °F 29.97 in SE 1.0 mph 2.0 mph 84 % 0.00 in
05:44 52.3 °F 47.7 °F 29.97 in Calm   2.0 mph 84 % 0.00 in
05:49 52.5 °F 47.8 °F 29.96 in Calm   2.0 mph 84 % 0.00 in
05:54 52.5 °F 47.8 °F 29.96 in Calm   2.0 mph 84 % 0.00 in
05:59 52.5 °F 47.8 °F 29.98 in SSW 1.0 mph 1.0 mph 84 % 0.00 in
06:04 52.5 °F 47.8 °F 29.97 in SSW 1.0 mph 2.0 mph 84 % 0.00 in
06:09 52.9 °F 48.2 °F 29.98 in SSW 1.0 mph 2.0 mph 84 % 0.00 in
06:14 52.9 °F 48.2 °F 29.99 in Calm   2.0 mph 84 % 0.00 in
06:19 53.1 °F 48.4 °F 29.99 in Calm   2.0 mph 84 % 0.00 in
06:24 53.1 °F 48.4 °F 29.97 in Calm   2.0 mph 84 % 0.00 in
06:29 53.1 °F 48.7 °F 29.97 in Calm   1.0 mph 85 % 0.00 in
06:34 53.1 °F 48.7 °F 29.96 in NW 1.0 mph 1.0 mph 85 % 0.00 in
06:39 52.9 °F 49.1 °F 29.96 in NW 2.0 mph 2.0 mph 87 % 0.02 in
06:44 52.7 °F 49.3 °F 29.96 in WNW 2.0 mph 2.0 mph 88 % 0.03 in
06:49 52.3 °F 49.5 °F 29.96 in Calm   3.0 mph 90 % 0.04 in
06:54 52.2 °F 49.3 °F 29.97 in Calm   3.0 mph 90 % 0.04 in
06:59 52.2 °F 49.3 °F 29.97 in Calm   3.0 mph 90 % 0.05 in
07:04 52.2 °F 49.6 °F 29.98 in SSE 1.0 mph 2.0 mph 91 % 0.05 in
07:09 52.2 °F 49.6 °F 29.98 in Calm   1.0 mph 91 % 0.05 in
07:14 52.2 °F 49.8 °F 29.98 in NE 1.0 mph 1.0 mph 92 % 0.05 in
07:20 52.3 °F 50.0 °F 29.98 in Calm   1.0 mph 92 % 0.05 in
07:25 52.5 °F 50.2 °F 29.98 in Calm   2.0 mph 92 % 0.05 in
07:30 52.5 °F 50.2 °F 29.98 in Calm   2.0 mph 92 % 0.05 in
07:35 52.5 °F 50.5 °F 29.98 in SE 1.0 mph 2.0 mph 93 % 0.03 in
07:40 52.7 °F 50.7 °F 29.97 in Calm   1.0 mph 93 % 0.02 in
07:45 52.9 °F 50.9 °F 29.98 in Calm   1.0 mph 93 % 0.01 in
07:50 53.1 °F 51.1 °F 29.98 in Calm   1.0 mph 93 % 0.01 in
07:55 53.2 °F 51.6 °F 29.98 in Calm   2.0 mph 94 % 0.00 in
08:00 53.4 °F 51.8 °F 29.98 in ENE 1.0 mph 2.0 mph 94 % 0.00 in
08:05 53.4 °F 51.8 °F 29.98 in NE 1.0 mph 2.0 mph 94 % 0.00 in
08:10 53.8 °F 52.2 °F 29.98 in Calm   1.0 mph 94 % 0.00 in
08:15 54.0 °F 52.3 °F 29.98 in Calm   1.0 mph 94 % 0.00 in
08:20 54.1 °F 52.5 °F 29.98 in Calm   1.0 mph 94 % 0.00 in
08:25 54.3 °F 52.7 °F 29.99 in Calm   1.0 mph 94 % 0.00 in
08:30 54.3 °F 52.7 °F 29.99 in Calm   1.0 mph 94 % 0.00 in
08:35 54.3 °F 52.7 °F 29.99 in Calm   1.0 mph 94 % 0.00 in
08:40 54.5 °F 52.9 °F 29.99 in Calm   1.0 mph 94 % 0.00 in
08:45 54.7 °F 53.1 °F 29.99 in Calm   1.0 mph 94 % 0.00 in
08:50 54.9 °F 53.2 °F 29.99 in Calm   1.0 mph 94 % 0.00 in
08:56 55.0 °F 53.4 °F 29.99 in Calm   1.0 mph 94 % 0.00 in
09:01 55.2 °F 53.6 °F 29.98 in Calm   2.0 mph 94 % 0.00 in
09:06 55.6 °F 54.0 °F 29.98 in Calm   2.0 mph 94 % 0.00 in
09:11 56.1 °F 55.0 °F 29.98 in NE 1.0 mph 2.0 mph 96 % 0.00 in
09:16 56.7 °F 55.0 °F 29.97 in NE 1.0 mph 3.0 mph 94 % 0.00 in
09:21 56.8 °F 55.2 °F 29.97 in Calm   3.0 mph 94 % 0.00 in
09:26 57.4 °F 55.6 °F 29.95 in NNW 1.0 mph 5.0 mph 94 % 0.00 in
09:31 57.9 °F 56.1 °F 29.96 in ENE 2.0 mph 5.0 mph 94 % 0.00 in
09:36 58.5 °F 56.5 °F 29.96 in ENE 4.0 mph 5.0 mph 93 % 0.00 in
09:41 59.4 °F 57.0 °F 29.95 in NE 4.0 mph 5.0 mph 92 % 0.00 in
09:46 60.1 °F 57.2 °F 29.96 in ESE 3.0 mph 6.0 mph 90 % 0.00 in
09:51 60.8 °F 57.6 °F 29.96 in East 1.0 mph 6.0 mph 89 % 0.00 in
09:56 61.9 °F 58.3 °F 29.96 in ESE 4.0 mph 6.0 mph 88 % 0.00 in
10:01 62.4 °F 57.6 °F 29.96 in ESE 2.0 mph 6.0 mph 84 % 0.00 in
10:06 62.8 °F 57.6 °F 29.96 in SE 3.0 mph 6.0 mph 83 % 0.00 in
10:11 63.1 °F 57.6 °F 29.96 in ESE 4.0 mph 6.0 mph 82 % 0.00 in
10:16 63.7 °F 57.4 °F 29.97 in SSE 1.0 mph 7.0 mph 80 % 0.00 in
10:21 64.2 °F 57.2 °F 29.96 in SE 2.0 mph 7.0 mph 78 % 0.00 in
10:26 64.4 °F 56.7 °F 29.97 in SE 3.0 mph 7.0 mph 76 % 0.00 in
10:31 64.6 °F 56.5 °F 29.96 in SE 2.0 mph 5.0 mph 75 % 0.00 in
10:36 64.8 °F 56.7 °F 29.96 in SSE 6.0 mph 6.0 mph 75 % 0.00 in
10:41 64.8 °F 56.7 °F 29.96 in SSE 1.0 mph 7.0 mph 75 % 0.00 in
10:46 64.8 °F 56.7 °F 29.96 in SE 2.0 mph 7.0 mph 75 % 0.00 in
10:51 64.9 °F 56.8 °F 29.96 in SSE 2.0 mph 7.0 mph 75 % 0.00 in
10:56 65.1 °F 57.0 °F 29.96 in SE 1.0 mph 7.0 mph 75 % 0.00 in
11:01 65.5 °F 57.4 °F 29.97 in South 2.0 mph 6.0 mph 75 % 0.00 in
11:06 65.7 °F 57.6 °F 29.97 in SSW 4.0 mph 6.0 mph 75 % 0.00 in
11:11 65.7 °F 57.6 °F 29.96 in SSE 3.0 mph 6.0 mph 75 % 0.00 in
11:12 65.7 °F 57.6 °F 29.96 in SSE 2.0 mph 6.0 mph 75 % 0.00 in
11:17 66.0 °F 57.9 °F 29.96 in ESE 4.0 mph 6.0 mph 75 % 0.00 in
11:22 66.2 °F 58.5 °F 29.95 in SW 4.0 mph 7.0 mph 76 % 0.00 in
11:27 66.6 °F 58.5 °F 29.95 in SSE 3.0 mph 7.0 mph 75 % 0.00 in
11:32 66.7 °F 58.6 °F 29.95 in East 6.0 mph 8.0 mph 75 % 0.00 in
11:37 66.7 °F 59.0 °F 29.94 in SSW 5.0 mph 9.0 mph 76 % 0.00 in
11:42 67.1 °F 59.4 °F 29.94 in SE 5.0 mph 9.0 mph 76 % 0.00 in
11:47 67.3 °F 59.0 °F 29.94 in SSE 6.0 mph 9.0 mph 75 % 0.00 in
11:52 67.3 °F 59.0 °F 29.93 in East 3.0 mph 8.0 mph 75 % 0.00 in
11:57 67.3 °F 59.0 °F 29.93 in SSE 5.0 mph 7.0 mph 75 % 0.00 in
12:02 67.3 °F 59.5 °F 29.92 in SE 4.0 mph 8.0 mph 76 % 0.00 in
12:07 67.3 °F 59.0 °F 29.91 in ESE 7.0 mph 9.0 mph 75 % 0.00 in
12:12 66.9 °F 58.8 °F 29.91 in SSE 4.0 mph 9.0 mph 75 % 0.00 in
12:17 66.7 °F 59.0 °F 29.92 in SE 3.0 mph 9.0 mph 76 % 0.00 in
12:22 66.9 °F 59.2 °F 29.92 in SSE 4.0 mph 9.0 mph 76 % 0.00 in
12:27 67.1 °F 59.4 °F 29.92 in SSE 2.0 mph 8.0 mph 76 % 0.00 in
12:32 66.9 °F 59.2 °F 29.91 in SSE 3.0 mph 10.0 mph 76 % 0.00 in
12:37 66.7 °F 59.0 °F 29.91 in SE 3.0 mph 10.0 mph 76 % 0.00 in
12:42 66.7 °F 59.4 °F 29.91 in SSE 4.0 mph 10.0 mph 77 % 0.00 in
12:47 66.7 °F 59.4 °F 29.90 in SE 4.0 mph 9.0 mph 77 % 0.00 in
12:52 66.4 °F 59.0 °F 29.90 in South 8.0 mph 12.0 mph 77 % 0.00 in
12:57 66.2 °F 59.5 °F 29.88 in SE 3.0 mph 12.0 mph 79 % 0.00 in
13:02 65.8 °F 59.9 °F 29.88 in East 3.0 mph 12.0 mph 81 % 0.00 in
13:07 65.1 °F 59.9 °F 29.88 in SE 5.0 mph 10.0 mph 83 % 0.00 in
13:12 64.9 °F 60.3 °F 29.88 in SE 3.0 mph 9.0 mph 85 % 0.00 in
13:17 64.6 °F 60.3 °F 29.89 in SE 4.0 mph 9.0 mph 86 % 0.01 in
13:22 64.2 °F 60.3 °F 29.88 in SE 1.0 mph 9.0 mph 87 % 0.01 in
13:27 63.9 °F 60.3 °F 29.86 in ENE 2.0 mph 9.0 mph 88 % 0.01 in
13:32 63.7 °F 60.4 °F 29.81 in ENE 10.0 mph 12.0 mph 89 % 0.02 in
13:37 63.1 °F 60.1 °F 29.84 in ESE 5.0 mph 12.0 mph 90 % 0.02 in
13:42 63.1 °F 60.1 °F 29.86 in South 6.0 mph 12.0 mph 90 % 0.02 in
13:47 63.0 °F 60.3 °F 29.86 in South 2.0 mph 10.0 mph 91 % 0.02 in
13:52 63.0 °F 60.3 °F 29.86 in South 2.0 mph 10.0 mph 91 % 0.02 in
13:57 62.8 °F 60.4 °F 29.86 in SSW 3.0 mph 8.0 mph 92 % 0.02 in
14:02 62.8 °F 60.4 °F 29.86 in SSW 1.0 mph 6.0 mph 92 % 0.02 in
14:07 62.8 °F 60.4 °F 29.86 in Calm   6.0 mph 92 % 0.03 in
14:12 62.8 °F 60.8 °F 29.85 in Calm   4.0 mph 93 % 0.03 in
14:17 62.8 °F 60.8 °F 29.85 in Calm   4.0 mph 93 % 0.02 in
14:22 63.0 °F 61.0 °F 29.85 in SSW 1.0 mph 2.0 mph 93 % 0.02 in
14:27 63.0 °F 60.6 °F 29.85 in SSE 2.0 mph 2.0 mph 92 % 0.02 in
14:32 63.0 °F 61.0 °F 29.85 in South 2.0 mph 5.0 mph 93 % 0.01 in
14:37 63.0 °F 61.0 °F 29.85 in SE 1.0 mph 5.0 mph 93 % 0.01 in
14:42 63.0 °F 61.0 °F 29.85 in ESE 2.0 mph 5.0 mph 93 % 0.01 in
14:47 63.1 °F 61.2 °F 29.85 in SSW 4.0 mph 5.0 mph 93 % 0.01 in
14:52 63.0 °F 60.6 °F 29.85 in South 5.0 mph 5.0 mph 92 % 0.01 in
14:57 63.0 °F 60.6 °F 29.85 in ESE 3.0 mph 5.0 mph 92 % 0.01 in
15:02 63.0 °F 61.0 °F 29.84 in South 2.0 mph 5.0 mph 93 % 0.01 in
15:07 63.0 °F 61.0 °F 29.84 in SE 1.0 mph 5.0 mph 93 % 0.00 in
15:12 63.0 °F 61.0 °F 29.83 in SSE 3.0 mph 6.0 mph 93 % 0.00 in
15:17 63.0 °F 61.0 °F 29.83 in SE 2.0 mph 6.0 mph 93 % 0.00 in
15:22 63.1 °F 61.2 °F 29.83 in ESE 5.0 mph 6.0 mph 93 % 0.00 in
15:27 63.1 °F 61.3 °F 29.82 in SE 4.0 mph 6.0 mph 94 % 0.00 in
15:33 63.3 °F 61.3 °F 29.83 in ESE 4.0 mph 6.0 mph 93 % 0.00 in
15:38 63.3 °F 61.3 °F 29.83 in ESE 5.0 mph 7.0 mph 93 % 0.00 in
15:43 63.3 °F 61.3 °F 29.82 in SE 4.0 mph 7.0 mph 93 % 0.00 in
15:48 63.3 °F 61.3 °F 29.82 in ENE 2.0 mph 8.0 mph 93 % 0.00 in
15:53 63.3 °F 61.3 °F 29.82 in ESE 2.0 mph 8.0 mph 93 % 0.00 in
15:58 63.3 °F 61.5 °F 29.82 in South 2.0 mph 8.0 mph 94 % 0.00 in
16:03 63.3 °F 61.3 °F 29.82 in East 2.0 mph 8.0 mph 93 % 0.00 in
16:08 63.3 °F 61.5 °F 29.82 in ESE 5.0 mph 9.0 mph 94 % 0.00 in
16:13 63.3 °F 61.3 °F 29.83 in East 3.0 mph 12.0 mph 93 % 0.00 in
16:18 63.1 °F 61.2 °F 29.82 in SE 2.0 mph 13.0 mph 93 % 0.00 in
16:23 63.0 °F 61.0 °F 29.83 in SE 3.0 mph 13.0 mph 93 % 0.00 in
16:28 63.0 °F 61.0 °F 29.83 in SE 5.0 mph 13.0 mph 93 % 0.00 in
16:33 63.0 °F 61.0 °F 29.83 in East 2.0 mph 10.0 mph 93 % 0.00 in
16:38 62.6 °F 60.6 °F 29.82 in ESE 3.0 mph 10.0 mph 93 % 0.00 in
16:43 62.4 °F 60.4 °F 29.82 in ESE 7.0 mph 10.0 mph 93 % 0.00 in
16:48 62.8 °F 60.4 °F 29.82 in SSE 1.0 mph 10.0 mph 92 % 0.00 in
16:53 63.0 °F 61.0 °F 29.81 in SE 8.0 mph 10.0 mph 93 % 0.00 in
16:58 63.3 °F 61.0 °F 29.81 in ESE 6.0 mph 10.0 mph 92 % 0.00 in
17:03 63.3 °F 60.6 °F 29.82 in SE 3.0 mph 10.0 mph 91 % 0.00 in
17:08 63.1 °F 60.1 °F 29.82 in SE 8.0 mph 10.0 mph 90 % 0.00 in
17:13 63.0 °F 59.9 °F 29.82 in East 6.0 mph 10.0 mph 90 % 0.00 in
17:18 63.0 °F 59.9 °F 29.82 in SSE 8.0 mph 11.0 mph 90 % 0.00 in
17:23 62.8 °F 59.7 °F 29.82 in SSE 5.0 mph 12.0 mph 90 % 0.00 in
17:28 62.6 °F 59.9 °F 29.82 in East 5.0 mph 12.0 mph 91 % 0.00 in
17:33 62.4 °F 59.7 °F 29.82 in ESE 5.0 mph 12.0 mph 91 % 0.00 in
17:38 62.4 °F 59.7 °F 29.82 in ESE 1.0 mph 10.0 mph 91 % 0.00 in
17:43 62.4 °F 59.7 °F 29.82 in ESE 4.0 mph 10.0 mph 91 % 0.00 in
17:48 62.2 °F 59.5 °F 29.82 in East 5.0 mph 8.0 mph 91 % 0.00 in
17:53 62.2 °F 59.5 °F 29.82 in ESE 2.0 mph 10.0 mph 91 % 0.00 in
17:58 62.2 °F 59.5 °F 29.81 in ESE 4.0 mph 10.0 mph 91 % 0.00 in
18:03 62.1 °F 59.4 °F 29.81 in ENE 3.0 mph 10.0 mph 91 % 0.00 in
18:08 61.9 °F 59.5 °F 29.81 in ESE 5.0 mph 6.0 mph 92 % 0.00 in
18:13 61.7 °F 59.4 °F 29.81 in SSE 2.0 mph 6.0 mph 92 % 0.00 in
18:18 61.5 °F 59.2 °F 29.81 in ESE 2.0 mph 6.0 mph 92 % 0.00 in
18:23 61.3 °F 59.0 °F 29.81 in ESE 3.0 mph 5.0 mph 92 % 0.00 in
18:28 61.3 °F 59.0 °F 29.82 in ESE 2.0 mph 5.0 mph 92 % 0.00 in
18:33 61.2 °F 58.8 °F 29.81 in ESE 2.0 mph 7.0 mph 92 % 0.00 in
18:38 61.2 °F 59.2 °F 29.81 in NE 5.0 mph 7.0 mph 93 % 0.00 in
18:43 61.0 °F 59.0 °F 29.81 in SE 2.0 mph 7.0 mph 93 % 0.00 in
18:48 61.0 °F 59.0 °F 29.81 in SE 3.0 mph 7.0 mph 93 % 0.00 in
18:54 60.8 °F 58.8 °F 29.81 in ESE 1.0 mph 7.0 mph 93 % 0.00 in
18:59 60.6 °F 58.6 °F 29.81 in ESE 1.0 mph 6.0 mph 93 % 0.00 in
19:04 60.4 °F 58.5 °F 29.81 in East 2.0 mph 6.0 mph 93 % 0.00 in
19:09 60.4 °F 58.5 °F 29.81 in East 1.0 mph 5.0 mph 93 % 0.00 in
19:14 60.3 °F 58.3 °F 29.81 in ESE 1.0 mph 5.0 mph 93 % 0.00 in
19:19 60.3 °F 58.3 °F 29.81 in South 1.0 mph 5.0 mph 93 % 0.00 in
19:24 60.1 °F 58.1 °F 29.81 in SE 1.0 mph 4.0 mph 93 % 0.00 in
19:29 59.9 °F 58.1 °F 29.81 in SE 1.0 mph 4.0 mph 94 % 0.00 in
19:34 59.9 °F 58.1 °F 29.81 in East 2.0 mph 4.0 mph 94 % 0.00 in
19:39 59.7 °F 57.9 °F 29.81 in ESE 2.0 mph 4.0 mph 94 % 0.00 in
19:44 59.7 °F 57.9 °F 29.81 in ESE 1.0 mph 4.0 mph 94 % 0.00 in
19:49 59.5 °F 57.7 °F 29.81 in East 1.0 mph 3.0 mph 94 % 0.00 in
19:54 59.5 °F 57.7 °F 29.81 in Calm   3.0 mph 94 % 0.00 in
19:59 59.4 °F 57.6 °F 29.82 in Calm   3.0 mph 94 % 0.00 in
20:04 59.4 °F 57.6 °F 29.82 in ESE 1.0 mph 3.0 mph 94 % 0.00 in
20:09 59.2 °F 57.4 °F 29.82 in Calm   3.0 mph 94 % 0.00 in
20:14 59.2 °F 57.4 °F 29.82 in SE 1.0 mph 3.0 mph 94 % 0.00 in
20:19 59.2 °F 57.7 °F 29.82 in Calm   2.0 mph 95 % 0.00 in
20:24 59.0 °F 57.6 °F 29.82 in Calm   3.0 mph 95 % 0.00 in
20:29 58.8 °F 57.4 °F 29.82 in Calm   3.0 mph 95 % 0.00 in
20:34 58.8 °F 57.4 °F 29.83 in East 2.0 mph 3.0 mph 95 % 0.00 in
20:39 58.8 °F 57.4 °F 29.83 in SE 3.0 mph 3.0 mph 95 % 0.00 in
20:44 58.8 °F 57.4 °F 29.83 in SE 2.0 mph 3.0 mph 95 % 0.00 in
20:49 59.0 °F 57.9 °F 29.83 in SE 2.0 mph 3.0 mph 96 % 0.00 in
20:54 59.2 °F 58.1 °F 29.83 in SSE 3.0 mph 4.0 mph 96 % 0.00 in
20:59 59.4 °F 58.3 °F 29.83 in SSE 2.0 mph 4.0 mph 96 % 0.00 in
21:04 59.4 °F 58.3 °F 29.84 in ESE 4.0 mph 6.0 mph 96 % 0.00 in
21:09 59.5 °F 58.5 °F 29.83 in East 3.0 mph 6.0 mph 96 % 0.00 in
21:14 59.7 °F 58.6 °F 29.83 in South 7.0 mph 9.0 mph 96 % 0.00 in
21:19 59.7 °F 58.6 °F 29.83 in SSE 2.0 mph 9.0 mph 96 % 0.00 in
21:24 59.7 °F 58.6 °F 29.83 in SE 2.0 mph 9.0 mph 96 % 0.00 in
21:29 59.9 °F 58.8 °F 29.83 in SE 3.0 mph 11.0 mph 96 % 0.00 in
21:34 59.9 °F 58.8 °F 29.83 in SE 4.0 mph 11.0 mph 96 % 0.00 in
21:39 59.7 °F 58.3 °F 29.84 in SE 5.0 mph 11.0 mph 95 % 0.00 in
21:44 59.7 °F 58.3 °F 29.84 in ENE 2.0 mph 9.0 mph 95 % 0.00 in
21:49 59.7 °F 58.3 °F 29.84 in South 4.0 mph 9.0 mph 95 % 0.00 in
21:54 59.5 °F 58.1 °F 29.84 in East 2.0 mph 7.0 mph 95 % 0.00 in
22:00 59.5 °F 58.1 °F 29.84 in SE 3.0 mph 7.0 mph 95 % 0.00 in
22:05 59.5 °F 58.1 °F 29.84 in ENE 1.0 mph 7.0 mph 95 % 0.00 in
22:10 59.4 °F 57.9 °F 29.84 in East 5.0 mph 7.0 mph 95 % 0.00 in
22:15 59.4 °F 57.9 °F 29.84 in SE 2.0 mph 8.0 mph 95 % 0.00 in
22:20 59.4 °F 57.9 °F 29.84 in ESE 1.0 mph 8.0 mph 95 % 0.00 in
22:25 59.2 °F 57.7 °F 29.84 in SE 2.0 mph 8.0 mph 95 % 0.00 in
22:30 59.2 °F 57.7 °F 29.83 in East 6.0 mph 6.0 mph 95 % 0.00 in
22:35 59.0 °F 57.6 °F 29.83 in ESE 3.0 mph 7.0 mph 95 % 0.00 in
22:40 59.0 °F 57.6 °F 29.83 in ESE 3.0 mph 7.0 mph 95 % 0.00 in
22:45 58.8 °F 57.4 °F 29.83 in SE 4.0 mph 7.0 mph 95 % 0.00 in
22:50 58.8 °F 57.4 °F 29.83 in ESE 1.0 mph 7.0 mph 95 % 0.00 in
22:55 58.6 °F 57.2 °F 29.83 in SE 2.0 mph 6.0 mph 95 % 0.00 in
23:00 58.6 °F 57.2 °F 29.83 in ESE 1.0 mph 5.0 mph 95 % 0.00 in
23:05 58.5 °F 57.0 °F 29.83 in SE 1.0 mph 3.0 mph 95 % 0.00 in
23:10 58.5 °F 57.0 °F 29.82 in ESE 1.0 mph 4.0 mph 95 % 0.00 in
23:15 58.3 °F 56.8 °F 29.82 in SSE 1.0 mph 4.0 mph 95 % 0.00 in
23:25 58.1 °F 56.7 °F 29.81 in Calm   6.0 mph 95 % 0.00 in
23:30 57.9 °F 56.5 °F 29.81 in Calm   6.0 mph 95 % 0.00 in
23:35 57.9 °F 56.5 °F 29.81 in Calm   4.0 mph 95 % 0.00 in
23:40 57.9 °F 56.5 °F 29.81 in ESE 1.0 mph 3.0 mph 95 % 0.00 in
23:45 57.9 °F 56.5 °F 29.81 in Calm   3.0 mph 95 % 0.00 in
23:50 57.7 °F 56.3 °F 29.81 in Calm   3.0 mph 95 % 0.00 in
23:55 57.7 °F 56.3 °F 29.80 in SE 1.0 mph 4.0 mph 95 % 0.00 in
Spring, Texas: Villages of Bridgestone
Compliments of Weather Underground - 2.75 mb

Script developed by  Jim McMurry - jmcmurry@mwt.net Adapted for the template by  Wim van der Kuil - Leuven-Template.eu

You find our weather info also at:

UK Metoffice

WeatherCloud

Weather Underground

Mid-South Weather Network

AWEKAS

Citizen Weather Observer Program (CWOP)

HAMweather, WeatherForYou, PWS Weather

Equipment we use:

Weather-station
Davis Vantage Vue

Weather-program
Meteohub

Weather-server
Debian 7.9 x86 (Guest)

Provider
DreamHost

Davis Vantage Vue

Meteohub

Debian 7.9 x86 (Guest)

DreamHost